Time;durP1;ratioP1;P1;durP2;ratioP2;P2;SDS_P1;SDS_P2;PMS_P1;PMS_P2;Temp;Humidity;BMP_temperature;BMP_pressure;BME280_temperature;BME280_humidity;BME280_pressure;Samples;Min_cycle;Max_cycle;Signal;HPM_P1;HPM_P2
2021/12/28 00:02:20;;;;;;;29.40;14.47;;;10.30;60.80;;;;;;5080568;28;20465;-83
2021/12/28 00:04:47;;;;;;;27.17;14.30;;;10.20;60.90;;;;;;5095634;28;20825;-85
2021/12/28 00:07:14;;;;;;;26.77;14.50;;;10.20;61.30;;;;;;5094727;28;20476;-84
2021/12/28 00:09:42;;;;;;;27.40;12.50;;;10.20;61.10;;;;;;5076669;28;20815;-84
2021/12/28 00:12:10;;;;;;;24.50;13.87;;;10.20;61.00;;;;;;5096035;28;21001;-84
2021/12/28 00:14:48;;;;;;;28.77;12.73;;;10.30;60.80;;;;;;5079307;28;20458;-85
2021/12/28 00:20:00;;;;;;;38.70;16.70;;;10.30;60.70;;;;;;5085374;28;20448;-85
2021/12/28 00:22:27;;;;;;;29.30;14.33;;;10.30;60.80;;;;;;5076593;28;20485;-84
2021/12/28 00:24:53;;;;;;;30.03;14.27;;;10.10;61.40;;;;;;5077861;28;20475;-85
2021/12/28 00:27:20;;;;;;;20.53;12.10;;;10.10;61.40;;;;;;5061287;28;20457;-84
2021/12/28 00:29:49;;;;;;;30.10;12.50;;;10.00;61.90;;;;;;5063028;28;20443;-86
2021/12/28 00:32:16;;;;;;;21.87;11.57;;;10.00;61.80;;;;;;5080098;28;20450;-85
2021/12/28 00:34:43;;;;;;;31.43;14.37;;;10.20;61.50;;;;;;5049605;28;20482;-84
2021/12/28 00:37:10;;;;;;;21.60;12.30;;;10.10;61.30;;;;;;5079062;28;21029;-86
2021/12/28 00:39:37;;;;;;;24.80;12.47;;;10.20;61.30;;;;;;5064715;28;20451;-86
2021/12/28 00:42:05;;;;;;;26.00;11.07;;;10.20;60.80;;;;;;5070529;28;20460;-85
2021/12/28 00:44:31;;;;;;;20.83;11.47;;;10.30;60.50;;;;;;5084009;28;20548;-85
2021/12/28 00:47:00;;;;;;;25.17;13.20;;;10.30;60.50;;;;;;5079139;28;20443;-85
2021/12/28 00:49:27;;;;;;;23.90;12.03;;;10.30;60.20;;;;;;5082986;28;20825;-85
2021/12/28 00:51:55;;;;;;;24.93;12.03;;;10.30;60.40;;;;;;5083515;27;20454;-85
2021/12/28 00:54:22;;;;;;;29.37;14.47;;;10.20;60.70;;;;;;5048217;28;21004;-85
2021/12/28 00:56:49;;;;;;;23.80;12.43;;;10.20;60.70;;;;;;5100449;27;20447;-86
2021/12/28 00:59:16;;;;;;;29.47;15.13;;;10.30;60.70;;;;;;5102289;27;20466;-85
2021/12/28 01:01:43;;;;;;;28.63;15.83;;;10.30;60.50;;;;;;5097458;28;20926;-85
2021/12/28 01:04:11;;;;;;;28.10;16.60;;;10.30;60.30;;;;;;5064611;28;20447;-86
2021/12/28 01:06:38;;;;;;;30.40;16.37;;;10.40;60.20;;;;;;5063554;28;20702;-86
2021/12/28 01:09:05;;;;;;;29.10;17.77;;;10.40;60.40;;;;;;5066195;28;20620;-85
2021/12/28 01:11:32;;;;;;;44.27;17.37;;;10.30;60.50;;;;;;5073805;28;20453;-85
2021/12/28 01:13:59;;;;;;;31.93;15.33;;;10.30;60.60;;;;;;5095618;28;20462;-85
2021/12/28 01:16:26;;;;;;;36.70;16.50;;;10.20;60.90;;;;;;5080881;28;20447;-84
2021/12/28 01:18:53;;;;;;;26.87;15.40;;;10.20;61.00;;;;;;5084795;28;20459;-85
2021/12/28 01:21:22;;;;;;;30.67;15.57;;;10.20;61.00;;;;;;5099139;28;20461;-82
2021/12/28 01:23:49;;;;;;;27.07;13.43;;;10.20;60.80;;;;;;5096787;28;20494;-85
2021/12/28 01:26:16;;;;;;;37.30;17.10;;;10.20;60.60;;;;;;5101171;27;20459;-86
2021/12/28 01:28:43;;;;;;;25.97;13.93;;;10.30;60.20;;;;;;5079779;27;20463;-85
2021/12/28 01:31:10;;;;;;;38.03;16.80;;;10.30;59.70;;;;;;5100070;28;20468;-86
2021/12/28 01:33:37;;;;;;;38.70;14.50;;;10.30;59.40;;;;;;5098984;28;20454;-86
2021/12/28 01:36:04;;;;;;;29.27;14.00;;;10.30;59.30;;;;;;5099907;28;20462;-86
2021/12/28 01:38:32;;;;;;;27.67;15.67;;;10.30;59.20;;;;;;5081740;28;20459;-86
2021/12/28 01:40:59;;;;;;;31.10;13.23;;;10.30;59.20;;;;;;5097800;27;20463;-85
2021/12/28 01:43:26;;;;;;;31.40;14.23;;;10.20;59.10;;;;;;5081949;28;20463;-85
2021/12/28 01:45:57;;;;;;;27.23;14.20;;;10.20;59.20;;;;;;5078043;28;20755;-86
2021/12/28 01:48:26;;;;;;;27.23;13.03;;;10.20;59.40;;;;;;5095575;28;20466;-86
2021/12/28 01:50:56;;;;;;;26.00;13.03;;;10.20;59.40;;;;;;5097273;28;20446;-84
2021/12/28 01:53:23;;;;;;;24.87;13.03;;;10.10;59.40;;;;;;5071337;28;20960;-86
2021/12/28 01:55:54;;;;;;;23.93;12.33;;;10.10;59.70;;;;;;5097928;28;20463;-85
2021/12/28 01:58:22;;;;;;;24.57;13.30;;;10.10;59.80;;;;;;5048241;28;20454;-85
2021/12/28 02:00:51;;;;;;;26.70;12.70;;;10.20;59.90;;;;;;5098216;28;20467;-86
2021/12/28 02:03:22;;;;;;;23.40;11.90;;;10.20;59.70;;;;;;5078497;27;20475;-86
2021/12/28 02:05:50;;;;;;;25.20;12.50;;;10.30;59.80;;;;;;5094894;27;20481;-85
2021/12/28 02:08:17;;;;;;;30.07;13.10;;;10.20;59.90;;;;;;5097257;28;20459;-85
2021/12/28 02:10:47;;;;;;;24.00;12.73;;;10.20;60.10;;;;;;5101423;28;20461;-86
2021/12/28 02:13:16;;;;;;;29.20;12.80;;;10.30;60.00;;;;;;5080190;28;20791;-84
2021/12/28 02:15:43;;;;;;;37.50;15.83;;;10.30;59.90;;;;;;5082215;28;20482;-84
2021/12/28 02:18:13;;;;;;;34.10;14.43;;;10.20;59.90;;;;;;5096971;28;20463;-85
2021/12/28 02:20:42;;;;;;;25.40;13.50;;;10.20;60.20;;;;;;5079986;28;20467;-83
2021/12/28 02:23:09;;;;;;;18.50;10.93;;;10.30;60.10;;;;;;5099160;28;20481;-86
2021/12/28 02:25:36;;;;;;;23.27;12.50;;;10.20;59.70;;;;;;5082939;28;20478;-86
2021/12/28 02:28:04;;;;;;;28.80;12.60;;;10.00;60.40;;;;;;5078683;28;20451;-86
2021/12/28 02:30:31;;;;;;;31.13;13.57;;;9.80;62.30;;;;;;5079661;28;20830;-83
2021/12/28 02:32:58;;;;;;;39.80;16.33;;;9.70;62.80;;;;;;5077022;28;20444;-86
2021/12/28 02:35:27;;;;;;;23.80;13.77;;;9.60;63.20;;;;;;5078550;28;20495;-86
2021/12/28 02:37:56;;;;;;;33.27;14.97;;;9.70;63.30;;;;;;5078100;28;20840;-84
2021/12/28 02:40:25;;;;;;;24.17;12.50;;;9.80;62.70;;;;;;5098021;27;20450;-86
2021/12/28 02:42:53;;;;;;;26.80;12.73;;;10.00;61.20;;;;;;5068773;28;20474;-85
2021/12/28 02:45:25;;;;;;;21.30;11.80;;;10.00;60.90;;;;;;5094195;28;20501;-82
2021/12/28 02:47:51;;;;;;;21.00;10.90;;;10.10;60.70;;;;;;5081130;28;20465;-86
2021/12/28 02:50:22;;;;;;;22.57;12.50;;;10.20;60.40;;;;;;5066874;28;20462;-85
2021/12/28 02:52:51;;;;;;;19.90;11.77;;;10.20;60.20;;;;;;5084907;28;20451;-86
2021/12/28 02:55:22;;;;;;;16.93;10.30;;;10.20;60.10;;;;;;5074897;28;20470;-85
2021/12/28 02:57:52;;;;;;;16.80;10.70;;;10.20;59.80;;;;;;5096035;28;20488;-86
2021/12/28 03:00:32;;;;;;;17.10;9.07;;;10.20;59.70;;;;;;5077188;28;20450;-84
2021/12/28 03:02:59;;;;;;;18.20;9.20;;;10.20;59.90;;;;;;5098044;27;20823;-85
2021/12/28 03:05:26;;;;;;;18.17;9.50;;;10.20;59.90;;;;;;5080544;28;20475;-85
2021/12/28 03:07:53;;;;;;;14.23;8.40;;;10.20;59.70;;;;;;5099153;28;20473;-85
2021/12/28 03:10:22;;;;;;;16.47;9.53;;;10.10;59.70;;;;;;5075328;28;20458;-82
2021/12/28 03:12:49;;;;;;;20.23;9.80;;;10.00;60.10;;;;;;5078241;28;20450;-85
2021/12/28 03:15:15;;;;;;;20.03;11.40;;;10.00;60.30;;;;;;5080908;28;20885;-85
2021/12/28 03:17:43;;;;;;;16.87;9.10;;;10.00;60.10;;;;;;5076606;28;20977;-86
2021/12/28 03:20:13;;;;;;;17.67;9.30;;;10.10;60.00;;;;;;5095026;28;20622;-86
2021/12/28 03:22:40;;;;;;;24.03;9.73;;;10.10;60.30;;;;;;5094447;28;20475;-85
2021/12/28 03:25:09;;;;;;;18.73;10.07;;;10.00;60.40;;;;;;5096737;28;20470;-86
2021/12/28 03:27:37;;;;;;;16.93;9.43;;;10.10;60.20;;;;;;5077485;28;20458;-86
2021/12/28 03:30:08;;;;;;;18.53;8.93;;;10.20;60.10;;;;;;5069570;27;20810;-86
2021/12/28 03:32:35;;;;;;;13.73;8.50;;;10.20;60.00;;;;;;5078786;28;20469;-85
2021/12/28 03:35:03;;;;;;;17.50;9.13;;;10.20;59.90;;;;;;5097098;28;20471;-86
2021/12/28 03:37:30;;;;;;;19.63;9.00;;;10.20;59.80;;;;;;5094873;28;20503;-86
2021/12/28 03:39:57;;;;;;;19.10;9.30;;;10.30;59.80;;;;;;5085166;28;20888;-85
2021/12/28 03:42:24;;;;;;;15.60;9.57;;;10.30;59.70;;;;;;5094691;28;20482;-86
2021/12/28 03:44:53;;;;;;;18.57;9.87;;;10.20;59.90;;;;;;5097769;28;20545;-84
2021/12/28 03:47:20;;;;;;;18.47;9.77;;;10.10;60.20;;;;;;5086725;28;20817;-83
2021/12/28 03:49:47;;;;;;;15.50;8.77;;;10.10;60.00;;;;;;5094823;28;20868;-86
2021/12/28 03:52:14;;;;;;;13.50;8.53;;;10.20;59.90;;;;;;5071598;28;20551;-86
2021/12/28 03:54:41;;;;;;;16.37;8.70;;;10.20;59.70;;;;;;5061570;28;20466;-85
2021/12/28 03:57:08;;;;;;;18.23;9.03;;;10.30;59.60;;;;;;5094075;28;20462;-86
2021/12/28 03:59:35;;;;;;;15.87;8.60;;;10.30;59.50;;;;;;5080619;28;20448;-86
2021/12/28 04:02:04;;;;;;;12.60;7.80;;;10.30;59.30;;;;;;5096747;28;20463;-85
2021/12/28 04:04:31;;;;;;;17.20;8.70;;;10.30;59.30;;;;;;5079784;28;20482;-86
2021/12/28 04:06:59;;;;;;;14.60;8.77;;;10.20;59.70;;;;;;5094573;28;20984;-85
2021/12/28 04:09:56;;;;;;;16.50;8.77;;;10.00;60.00;;;;;;5098254;28;20447;-85
2021/12/28 04:12:22;;;;;;;13.47;7.80;;;9.90;61.40;;;;;;5079083;28;20502;-84
2021/12/28 04:14:50;;;;;;;15.10;9.10;;;10.00;60.40;;;;;;5097031;28;20482;-85
2021/12/28 04:17:18;;;;;;;14.97;8.30;;;10.00;59.90;;;;;;5101140;28;20820;-85
2021/12/28 04:19:45;;;;;;;12.77;8.47;;;10.10;59.80;;;;;;5085357;28;20462;-85
2021/12/28 04:22:12;;;;;;;16.23;8.07;;;10.20;59.90;;;;;;5083461;28;20462;-86
2021/12/28 04:24:39;;;;;;;18.83;9.07;;;10.20;59.70;;;;;;5063985;28;20477;-86
2021/12/28 04:27:06;;;;;;;18.73;9.17;;;10.20;59.50;;;;;;5101232;28;20459;-85
2021/12/28 04:29:33;;;;;;;17.67;8.83;;;10.10;59.70;;;;;;5082660;28;20472;-86
2021/12/28 04:32:01;;;;;;;17.50;9.87;;;9.60;62.00;;;;;;5097509;27;20442;-86
2021/12/28 04:34:29;;;;;;;26.50;10.53;;;9.70;62.00;;;;;;5100818;28;20947;-86
2021/12/28 04:36:56;;;;;;;26.37;11.53;;;9.90;61.80;;;;;;5096118;28;20482;-83
2021/12/28 04:39:23;;;;;;;17.80;9.97;;;10.00;60.30;;;;;;5100910;28;20447;-84
2021/12/28 04:41:50;;;;;;;20.87;12.00;;;10.00;59.90;;;;;;5067568;28;20439;-85
2021/12/28 04:44:23;;;;;;;23.00;11.27;;;10.00;59.80;;;;;;5068045;28;20819;-84
2021/12/28 04:46:51;;;;;;;20.00;10.70;;;10.00;59.70;;;;;;5098698;27;20454;-86
2021/12/28 04:49:20;;;;;;;18.73;9.87;;;10.10;59.80;;;;;;5072164;28;20446;-85
2021/12/28 04:51:49;;;;;;;15.50;9.40;;;10.00;60.20;;;;;;5082172;28;20852;-85
2021/12/28 04:54:17;;;;;;;20.67;10.43;;;10.00;60.10;;;;;;5074612;28;20474;-85
2021/12/28 04:56:45;;;;;;;17.90;10.73;;;10.10;59.90;;;;;;5079583;28;20450;-86
2021/12/28 04:59:12;;;;;;;18.97;9.17;;;10.10;59.70;;;;;;5097400;27;20942;-86
2021/12/28 05:01:40;;;;;;;18.23;9.53;;;10.10;59.60;;;;;;5082976;28;20462;-86
2021/12/28 05:04:07;;;;;;;17.90;10.20;;;10.10;59.50;;;;;;5098127;27;20479;-85
2021/12/28 05:06:35;;;;;;;16.17;9.37;;;10.10;59.50;;;;;;5065881;28;20447;-86
2021/12/28 05:09:06;;;;;;;18.40;10.50;;;10.10;59.50;;;;;;5095788;28;20470;-86
2021/12/28 05:11:33;;;;;;;17.30;9.00;;;10.10;59.40;;;;;;5066287;28;20464;-86
2021/12/28 05:14:00;;;;;;;15.87;8.30;;;10.20;59.50;;;;;;5099998;28;20469;-86
2021/12/28 05:16:30;;;;;;;23.37;9.23;;;10.20;59.20;;;;;;5098131;28;20830;-85
2021/12/28 05:18:58;;;;;;;14.47;8.60;;;10.20;59.30;;;;;;5081801;28;20454;-86
2021/12/28 05:21:25;;;;;;;20.10;10.43;;;10.20;59.20;;;;;;5067615;28;20452;-86
2021/12/28 05:23:52;;;;;;;22.03;10.30;;;10.20;59.20;;;;;;5083730;28;20483;-83
2021/12/28 05:26:20;;;;;;;17.90;9.60;;;10.20;59.00;;;;;;5099485;28;20462;-86
2021/12/28 05:28:48;;;;;;;15.20;7.43;;;10.10;59.00;;;;;;5079045;28;21229;-85
2021/12/28 05:31:15;;;;;;;19.03;8.20;;;10.10;59.30;;;;;;5079200;28;20861;-86
2021/12/28 05:33:42;;;;;;;19.20;8.80;;;10.10;59.50;;;;;;5097997;27;20497;-86
2021/12/28 05:36:09;;;;;;;18.33;8.93;;;10.10;59.60;;;;;;5082219;28;20828;-85
2021/12/28 05:38:37;;;;;;;25.77;9.00;;;10.10;59.70;;;;;;5080558;28;20466;-85
2021/12/28 05:41:05;;;;;;;20.50;8.80;;;10.20;59.70;;;;;;5081551;28;20806;-85
2021/12/28 05:43:34;;;;;;;14.97;8.13;;;10.20;59.60;;;;;;5081664;28;20517;-85
2021/12/28 05:46:01;;;;;;;18.77;8.87;;;10.20;59.50;;;;;;5078237;28;20797;-85
2021/12/28 05:48:27;;;;;;;18.83;8.40;;;10.30;59.50;;;;;;5099044;27;20807;-85
2021/12/28 05:50:55;;;;;;;24.27;10.53;;;10.30;60.00;;;;;;5047365;27;20483;-85
2021/12/28 05:53:22;;;;;;;24.70;10.50;;;10.30;59.40;;;;;;5098475;27;20444;-84
2021/12/28 05:55:49;;;;;;;16.73;8.70;;;10.30;59.40;;;;;;5091833;28;20574;-85
2021/12/28 05:58:16;;;;;;;28.90;8.87;;;10.30;59.40;;;;;;5076040;28;20459;-85
2021/12/28 06:00:46;;;;;;;26.17;10.57;;;10.20;59.60;;;;;;5097737;27;20462;-83
2021/12/28 06:03:13;;;;;;;29.77;9.97;;;10.10;60.00;;;;;;5080988;28;21000;-86
2021/12/28 06:05:40;;;;;;;23.00;9.97;;;10.00;60.30;;;;;;5081144;28;20489;-85
2021/12/28 06:08:07;;;;;;;24.30;11.20;;;10.00;60.50;;;;;;5096339;28;20463;-85
2021/12/28 06:10:33;;;;;;;26.83;12.00;;;10.10;60.30;;;;;;5094477;28;20502;-86
2021/12/28 06:13:00;;;;;;;23.80;12.70;;;10.20;60.20;;;;;;5078076;28;20455;-85
2021/12/28 06:15:27;;;;;;;25.57;12.87;;;10.20;60.00;;;;;;5095401;28;20486;-86
2021/12/28 06:17:56;;;;;;;52.93;24.77;;;10.20;59.90;;;;;;5076737;28;20467;-85
2021/12/28 06:20:22;;;;;;;31.93;17.23;;;10.30;59.80;;;;;;5095316;28;20494;-85
2021/12/28 06:22:50;;;;;;;27.60;14.77;;;10.30;59.80;;;;;;5060694;28;20458;-86
2021/12/28 06:25:17;;;;;;;28.50;13.00;;;10.30;59.80;;;;;;5099190;27;20813;-85
2021/12/28 06:27:44;;;;;;;23.07;12.33;;;10.30;59.90;;;;;;5094006;28;20750;-84
2021/12/28 06:30:11;;;;;;;28.40;14.20;;;10.30;59.70;;;;;;5081735;28;20459;-85
2021/12/28 06:32:38;;;;;;;25.33;11.87;;;10.20;60.10;;;;;;5085079;28;20466;-86
2021/12/28 06:35:09;;;;;;;23.03;10.13;;;9.90;61.80;;;;;;5074975;28;20987;-86
2021/12/28 06:37:36;;;;;;;17.40;10.70;;;9.90;62.20;;;;;;5090874;28;20455;-85
2021/12/28 06:40:04;;;;;;;20.07;12.07;;;9.90;62.30;;;;;;5091748;28;20459;-85
2021/12/28 06:42:31;;;;;;;22.43;10.80;;;10.00;61.00;;;;;;5075328;28;20450;-85
2021/12/28 06:44:58;;;;;;;40.13;16.00;;;10.00;61.00;;;;;;5078161;28;20463;-84
2021/12/28 06:47:25;;;;;;;26.23;14.33;;;10.00;60.80;;;;;;5066101;28;20844;-85
2021/12/28 06:49:52;;;;;;;31.63;11.70;;;10.10;60.60;;;;;;5096260;27;20455;-83
2021/12/28 06:52:20;;;;;;;20.67;9.60;;;10.10;60.50;;;;;;5093476;28;20485;-86
2021/12/28 06:54:47;;;;;;;64.63;37.83;;;10.10;60.10;;;;;;5075943;28;20999;-86
2021/12/28 06:57:14;;;;;;;25.03;15.20;;;9.90;62.10;;;;;;5073198;28;20454;-86
2021/12/28 06:59:44;;;;;;;20.13;14.27;;;9.70;62.60;;;;;;5094821;28;20454;-85
2021/12/28 07:02:11;;;;;;;20.50;12.90;;;9.60;63.30;;;;;;5091190;28;20490;-85
2021/12/28 07:04:38;;;;;;;23.20;13.63;;;9.70;63.20;;;;;;5059715;28;20482;-86
2021/12/28 07:07:06;;;;;;;27.10;16.50;;;9.80;63.10;;;;;;5059756;28;20791;-86
2021/12/28 07:09:35;;;;;;;26.87;15.10;;;9.90;62.30;;;;;;5077768;28;20450;-85
2021/12/28 07:12:03;;;;;;;25.23;14.17;;;10.00;61.10;;;;;;5094564;27;20459;-86
2021/12/28 07:14:31;;;;;;;27.50;14.43;;;10.10;60.90;;;;;;5075064;28;21001;-86
2021/12/28 07:16:58;;;;;;;29.93;14.13;;;10.20;60.70;;;;;;5078259;28;20961;-85
2021/12/28 07:19:26;;;;;;;24.37;12.93;;;10.20;60.40;;;;;;5093435;28;20450;-86
2021/12/28 07:21:54;;;;;;;26.10;13.80;;;10.30;60.30;;;;;;5077726;27;23952;-85
2021/12/28 07:24:21;;;;;;;23.17;11.50;;;10.30;60.40;;;;;;5077152;28;20486;-85
2021/12/28 07:26:49;;;;;;;23.33;14.33;;;10.30;60.40;;;;;;5076670;28;20458;-88
2021/12/28 07:29:17;;;;;;;29.10;15.93;;;10.30;60.40;;;;;;5046356;28;20460;-84
2021/12/28 07:31:44;;;;;;;26.53;15.37;;;10.20;60.50;;;;;;5100166;28;20450;-83
2021/12/28 07:34:11;;;;;;;25.80;16.30;;;10.10;60.60;;;;;;5094871;27;20467;-85
2021/12/28 07:36:38;;;;;;;22.83;12.77;;;10.20;60.60;;;;;;5059515;28;20535;-86
2021/12/28 07:39:06;;;;;;;30.80;18.20;;;10.20;61.20;;;;;;5096387;28;20466;-85
2021/12/28 07:41:34;;;;;;;28.53;16.00;;;10.10;60.60;;;;;;5096347;28;20512;-85
2021/12/28 07:44:04;;;;;;;27.87;15.00;;;10.20;60.80;;;;;;5076595;28;20471;-85
2021/12/28 07:46:31;;;;;;;28.60;14.37;;;10.20;60.60;;;;;;5070821;28;20455;-85
2021/12/28 07:48:58;;;;;;;41.47;22.17;;;10.20;60.40;;;;;;5090312;28;20455;-85
2021/12/28 07:51:25;;;;;;;52.17;22.63;;;10.20;60.70;;;;;;5070569;28;20803;-85
2021/12/28 07:53:52;;;;;;;45.77;21.73;;;10.20;60.70;;;;;;5088156;28;20827;-86
2021/12/28 07:56:19;;;;;;;50.23;24.10;;;10.20;60.60;;;;;;5074642;28;20453;-85
2021/12/28 07:58:46;;;;;;;31.20;15.10;;;10.30;60.60;;;;;;5064045;28;20449;-85
2021/12/28 08:01:15;;;;;;;24.30;12.70;;;10.20;60.80;;;;;;5094132;28;20454;-85
2021/12/28 08:03:42;;;;;;;17.77;12.00;;;10.20;61.00;;;;;;5078295;28;20486;-83
2021/12/28 08:06:09;;;;;;;18.53;11.20;;;10.10;61.00;;;;;;5062478;28;20481;-85
2021/12/28 08:08:36;;;;;;;23.43;11.50;;;10.10;61.30;;;;;;5077839;28;20451;-85
2021/12/28 08:11:03;;;;;;;20.17;10.23;;;10.20;61.20;;;;;;5093401;28;20833;-86
2021/12/28 08:13:30;;;;;;;21.60;13.13;;;10.20;60.70;;;;;;5096469;28;20458;-85
2021/12/28 08:15:57;;;;;;;22.87;10.80;;;10.30;60.60;;;;;;5077414;28;21096;-85
2021/12/28 08:18:26;;;;;;;15.57;9.70;;;10.30;60.50;;;;;;5077020;28;20459;-86
2021/12/28 08:20:53;;;;;;;17.73;10.47;;;10.10;61.00;;;;;;5087626;28;20456;-85
2021/12/28 08:23:19;;;;;;;31.27;17.33;;;10.00;61.30;;;;;;5056027;28;20992;-86
2021/12/28 08:25:46;;;;;;;27.67;15.70;;;10.00;61.50;;;;;;5076360;28;20479;-87
2021/12/28 08:28:13;;;;;;;28.50;15.83;;;10.00;61.50;;;;;;5090037;28;20457;-84
2021/12/28 08:30:40;;;;;;;79.33;41.67;;;10.00;61.30;;;;;;5073789;28;20447;-87
2021/12/28 08:33:10;;;;;;;59.63;33.30;;;9.90;62.60;;;;;;5088825;28;20451;-87
2021/12/28 08:35:40;;;;;;;41.87;23.87;;;10.00;61.50;;;;;;5070510;28;20461;-86
2021/12/28 08:38:08;;;;;;;34.73;21.10;;;10.10;61.40;;;;;;5054337;28;20455;-87
2021/12/28 08:40:35;;;;;;;29.57;17.37;;;10.10;61.60;;;;;;5070711;28;20447;-84
2021/12/28 08:43:02;;;;;;;34.83;24.90;;;10.00;62.60;;;;;;5071115;28;20448;-87
2021/12/28 08:45:29;;;;;;;25.53;14.07;;;10.00;63.10;;;;;;5069355;28;20909;-85
2021/12/28 08:47:57;;;;;;;17.10;11.53;;;10.10;62.70;;;;;;5068680;28;20444;-87
2021/12/28 08:50:24;;;;;;;17.93;9.83;;;10.30;62.10;;;;;;5078274;28;20459;-87
2021/12/28 08:52:53;;;;;;;28.40;12.43;;;10.40;61.70;;;;;;5047194;28;20465;-85
2021/12/28 08:55:22;;;;;;;18.60;10.30;;;10.50;61.40;;;;;;5056884;28;20479;-84
2021/12/28 08:57:49;;;;;;;29.07;15.03;;;10.50;61.10;;;;;;5077776;28;21008;-85
2021/12/28 09:00:20;;;;;;;23.10;13.30;;;10.30;61.50;;;;;;5074696;28;20469;-87
2021/12/28 09:02:47;;;;;;;18.80;12.40;;;10.40;61.40;;;;;;5090802;28;20459;-86
2021/12/28 09:05:13;;;;;;;23.93;11.60;;;10.30;61.60;;;;;;5091144;28;20535;-87
2021/12/28 09:07:41;;;;;;;20.93;11.73;;;10.20;61.50;;;;;;5039593;28;20454;-86
2021/12/28 09:10:09;;;;;;;15.97;11.53;;;10.20;62.10;;;;;;5074148;28;20444;-87
2021/12/28 09:12:37;;;;;;;16.20;10.03;;;10.20;62.30;;;;;;5094657;28;20455;-87
2021/12/28 09:15:04;;;;;;;15.00;10.10;;;10.20;62.20;;;;;;5095750;27;21487;-86
2021/12/28 09:17:33;;;;;;;16.00;10.53;;;10.30;62.40;;;;;;5071558;28;20524;-87
2021/12/28 09:20:00;;;;;;;17.90;9.97;;;10.30;62.20;;;;;;5094387;27;20982;-88
2021/12/28 09:22:27;;;;;;;17.40;9.23;;;10.40;61.90;;;;;;5091084;28;20459;-87
2021/12/28 09:24:54;;;;;;;16.33;9.40;;;10.50;61.70;;;;;;5089900;28;20483;-86
2021/12/28 09:27:22;;;;;;;12.43;8.43;;;10.30;62.00;;;;;;5090730;27;20455;-84
2021/12/28 09:29:49;;;;;;;12.77;7.23;;;10.40;62.10;;;;;;5078874;28;20431;-87
2021/12/28 09:32:16;;;;;;;16.27;10.70;;;10.50;62.00;;;;;;5082189;28;20914;-86
2021/12/28 09:34:45;;;;;;;18.67;9.97;;;10.50;61.90;;;;;;5076768;28;20771;-84
2021/12/28 09:37:12;;;;;;;14.03;8.13;;;10.40;62.10;;;;;;5072227;28;20451;-85
2021/12/28 09:39:39;;;;;;;23.03;8.40;;;10.50;62.30;;;;;;5072001;28;20501;-87
2021/12/28 09:42:07;;;;;;;18.20;11.90;;;10.60;62.30;;;;;;5074181;28;20487;-86
2021/12/28 09:44:36;;;;;;;15.03;9.80;;;10.50;62.40;;;;;;5072096;27;21046;-89
2021/12/28 09:47:05;;;;;;;16.70;7.47;;;10.50;62.40;;;;;;5081550;27;21987;-87
2021/12/28 09:49:33;;;;;;;12.50;7.60;;;10.60;62.10;;;;;;5097803;28;20885;-87
2021/12/28 09:52:03;;;;;;;12.30;8.50;;;10.50;62.60;;;;;;5075312;28;20451;-86
2021/12/28 09:54:30;;;;;;;13.53;9.07;;;10.30;63.80;;;;;;5076794;28;20467;-86
2021/12/28 09:57:00;;;;;;;18.67;9.60;;;10.30;63.50;;;;;;5078665;28;20458;-86
2021/12/28 09:59:29;;;;;;;11.43;10.07;;;10.30;64.40;;;;;;5058244;28;20483;-86
2021/12/28 10:01:59;;;;;;;27.87;15.77;;;10.40;64.40;;;;;;5067054;28;20448;-86
2021/12/28 10:04:26;;;;;;;21.07;12.50;;;10.40;64.30;;;;;;5074540;28;20872;-87
2021/12/28 10:07:11;;;;;;;26.93;15.50;;;10.30;64.60;;;;;;5057456;28;20455;-86
2021/12/28 10:09:38;;;;;;;23.23;15.70;;;10.30;64.60;;;;;;5081707;28;20456;-85
2021/12/28 10:12:06;;;;;;;30.40;17.07;;;10.40;64.30;;;;;;5091472;28;20511;-86
2021/12/28 10:14:33;;;;;;;16.87;10.90;;;10.30;65.40;;;;;;5074397;28;20470;-87
2021/12/28 10:17:03;;;;;;;9.40;5.80;;;10.10;67.40;;;;;;5073991;28;20551;-83
2021/12/28 10:19:33;;;;;;;20.43;13.60;;;10.00;70.40;;;;;;5081046;27;20463;-86
2021/12/28 10:22:26;;;;;;;25.30;15.50;;;10.20;69.80;;;;;;5090937;27;20467;-86
2021/12/28 10:24:55;;;;;;;18.60;12.27;;;10.50;67.90;;;;;;5084295;28;20483;-83
2021/12/28 10:27:24;;;;;;;16.43;11.33;;;10.50;66.60;;;;;;5089319;28;20455;-86
2021/12/28 10:29:51;;;;;;;19.27;11.40;;;10.70;65.70;;;;;;5092246;27;20483;-86
2021/12/28 10:32:23;;;;;;;18.07;10.67;;;10.70;65.40;;;;;;5077243;28;20463;-86
2021/12/28 10:34:53;;;;;;;23.87;11.80;;;10.80;64.70;;;;;;5075179;27;20493;-85
2021/12/28 10:37:22;;;;;;;19.97;11.87;;;10.80;65.10;;;;;;5093816;27;20538;-85
2021/12/28 10:39:54;;;;;;;18.33;11.43;;;10.90;65.40;;;;;;5071122;28;21139;-86
2021/12/28 10:42:41;;;;;;;18.90;11.87;;;11.00;64.40;;;;;;5091429;27;20463;-85
2021/12/28 10:45:10;;;;;;;22.40;15.67;;;11.00;64.40;;;;;;5072566;28;20471;-86
2021/12/28 10:47:38;;;;;;;23.30;17.00;;;11.00;64.30;;;;;;5092323;28;20451;-87
2021/12/28 10:50:26;;;;;;;26.40;15.10;;;11.10;64.70;;;;;;5076180;28;20549;-88
2021/12/28 10:53:05;;;;;;;19.63;13.90;;;11.20;64.50;;;;;;5093513;28;20524;-87
2021/12/28 10:55:33;;;;;;;22.77;15.27;;;11.20;64.60;;;;;;5094648;28;20467;-86
2021/12/28 10:58:02;;;;;;;20.87;15.20;;;11.30;64.60;;;;;;5090024;28;20458;-88
2021/12/28 11:00:32;;;;;;;17.30;13.93;;;11.20;64.70;;;;;;5093663;28;20466;-88
2021/12/28 11:03:26;;;;;;;19.60;14.20;;;11.40;64.60;;;;;;5079629;28;20444;-87
2021/12/28 11:05:56;;;;;;;25.53;19.90;;;11.30;64.30;;;;;;5098853;27;20531;-86
2021/12/28 11:08:26;;;;;;;25.70;15.37;;;11.30;64.60;;;;;;5057524;28;20462;-86
2021/12/28 11:10:56;;;;;;;20.70;12.90;;;11.40;64.60;;;;;;5099166;27;20451;-85
2021/12/28 11:13:25;;;;;;;18.60;12.43;;;11.40;65.10;;;;;;5073986;28;20467;-86
2021/12/28 11:15:52;;;;;;;17.47;11.73;;;11.30;65.20;;;;;;5075670;28;20456;-87
2021/12/28 11:18:25;;;;;;;16.87;11.27;;;11.40;65.20;;;;;;5072365;28;20876;-85
2021/12/28 11:20:55;;;;;;;20.37;13.67;;;11.30;66.60;;;;;;5091617;28;20452;-87
2021/12/28 11:23:23;;;;;;;16.93;11.77;;;11.40;66.20;;;;;;5076911;28;20463;-86
2021/12/28 11:26:03;;;;;;;23.40;17.33;;;11.30;67.20;;;;;;5076428;28;20470;-87
2021/12/28 11:28:31;;;;;;;31.70;17.80;;;11.40;66.80;;;;;;5093870;28;20457;-87
2021/12/28 11:31:02;;;;;;;25.30;15.60;;;11.50;66.80;;;;;;5090562;28;20454;-87
2021/12/28 11:33:48;;;;;;;19.23;11.73;;;11.60;66.50;;;;;;5081398;28;20970;-87
2021/12/28 11:36:17;;;;;;;23.53;10.63;;;11.80;66.40;;;;;;5073677;28;20760;-87
2021/12/28 11:38:45;;;;;;;22.67;14.70;;;11.80;67.00;;;;;;5091069;28;20489;-87
2021/12/28 11:41:12;;;;;;;20.93;15.20;;;11.90;66.50;;;;;;5080647;28;20487;-86
2021/12/28 11:43:41;;;;;;;21.80;16.50;;;12.00;66.30;;;;;;5076429;28;20470;-87
2021/12/28 11:46:09;;;;;;;10.93;7.53;;;12.00;66.50;;;;;;5064465;28;20658;-87
2021/12/28 11:48:37;;;;;;;6.60;5.40;;;12.10;67.00;;;;;;5091735;28;20446;-87
2021/12/28 11:51:05;;;;;;;4.80;4.10;;;12.20;67.00;;;;;;5063347;28;20463;-87
2021/12/28 11:53:36;;;;;;;4.43;4.03;;;12.20;69.00;;;;;;5072779;28;21040;-87
2021/12/28 11:56:05;;;;;;;6.43;3.77;;;12.30;68.50;;;;;;5075805;28;20455;-87
2021/12/28 11:58:52;;;;;;;6.30;3.60;;;12.50;68.30;;;;;;5092237;28;20465;-87
2021/12/28 12:01:47;;;;;;;25.30;16.60;;;12.60;67.80;;;;;;5081316;28;20459;-87
2021/12/28 12:04:55;;;;;;;22.87;14.80;;;12.60;67.60;;;;;;5092257;28;20475;-87
2021/12/28 12:07:32;;;;;;;4.20;2.70;;;12.60;68.60;;;;;;5057761;28;20478;-86
2021/12/28 12:10:21;;;;;;;4.60;3.13;;;12.50;69.40;;;;;;5091462;28;20489;-87
2021/12/28 12:12:54;;;;;;;7.13;4.10;;;12.50;70.20;;;;;;5070946;28;20537;-86
2021/12/28 12:15:24;;;;;;;9.00;4.50;;;12.60;69.80;;;;;;5072773;28;20480;-86
2021/12/28 12:17:56;;;;;;;12.03;5.60;;;12.60;70.10;;;;;;5089521;28;20471;-87
2021/12/28 12:20:30;;;;;;;2.50;2.27;;;12.70;69.70;;;;;;5076347;28;20864;-87
2021/12/28 12:23:12;;;;;;;4.00;2.30;;;12.80;69.30;;;;;;5060330;28;20435;-87
2021/12/28 12:25:56;;;;;;;16.60;8.20;;;12.90;69.60;;;;;;5072488;28;20986;-87
2021/12/28 12:28:35;;;;;;;4.20;2.70;;;13.00;69.10;;;;;;5070583;28;20833;-86
2021/12/28 12:31:04;;;;;;;2.07;1.70;;;12.90;70.10;;;;;;5071820;28;20478;-87
2021/12/28 12:33:37;;;;;;;4.63;2.73;;;12.90;69.70;;;;;;5072324;28;21076;-87
2021/12/28 12:36:08;;;;;;;3.83;2.60;;;13.10;69.20;;;;;;5087971;28;20469;-85
2021/12/28 12:38:39;;;;;;;4.90;3.40;;;13.10;69.50;;;;;;5049703;28;20968;-87
2021/12/28 12:41:12;;;;;;;6.23;3.07;;;13.00;70.20;;;;;;5078851;28;21176;-87
2021/12/28 12:43:49;;;;;;;4.40;2.43;;;13.10;69.50;;;;;;5061054;28;20461;-87